.
WxDataArchive / Data Records for 2013-02-04
2013-02-03 February 2013 2013-02-05

Data Records for Monday, 04 February 2013

Time	Temp	Chill	HIndex	Humid	Dewpt	 Wind 	HiWind	WindDir	Rain 	Barom 
-----	----	-----	------	-----	-----	------	------	-------	-----	----- 
00:00	14.9	14.9	14.9	78	9.3	0	0	---	0.00	30.091 
00:05	14.8	14.8	14.8	78	9.2	0	1	248	0.00	30.091 
00:10	14.6	14.6	14.6	79	9.3	0	1	248	0.00	30.091 
00:15	14.6	14.6	14.6	79	9.3	0	1	248	0.00	30.103 
00:20	14.8	14.8	14.8	79	9.5	0	1	248	0.00	30.103 
00:25	14.9	14.9	14.9	80	9.9	0	1	248	0.00	30.103 
00:30	15.1	15.1	15.1	80	10.1	0	1	248	0.00	30.101 
00:35	15.1	15.1	15.1	80	10.1	0	1	248	0.00	30.101 
00:40	14.9	14.9	14.9	80	9.9	0	1	248	0.00	30.101 
00:45	14.9	14.9	14.9	80	9.9	0	2	248	0.00	30.095 
00:50	14.8	14.8	14.8	80	9.8	0	3	248	0.00	30.095 
00:55	14.8	14.8	14.8	80	9.8	0	1	248	0.00	30.095 
01:00	14.8	14.8	14.8	81	10.0	0	1	248	0.00	30.090 
01:05	14.6	14.6	14.6	81	9.9	0	0	---	0.00	30.090 
01:10	14.6	14.6	14.6	81	9.9	0	1	248	0.00	30.090 
01:15	14.4	14.4	14.4	81	9.7	0	0	---	0.00	30.086 
01:20	14.3	14.3	14.3	81	9.6	0	0	---	0.00	30.086 
01:25	14.3	14.3	14.3	81	9.6	0	0	---	0.00	30.086 
01:30	14.1	14.1	14.1	81	9.4	0	0	---	0.00	30.086 
01:35	14.1	14.1	14.1	81	9.4	0	0	---	0.00	30.086 
01:40	14.0	14.0	14.0	81	9.3	0	0	---	0.00	30.086 
01:45	14.0	14.0	14.0	82	9.5	0	0	---	0.00	30.086 
01:50	14.0	14.0	14.0	82	9.5	0	0	---	0.00	30.086 
01:55	14.1	14.1	14.1	82	9.6	0	0	---	0.00	30.086 
02:00	14.3	14.3	14.3	83	10.1	0	0	---	0.00	30.086 
02:05	14.4	14.4	14.4	83	10.2	0	0	---	0.00	30.086 
02:10	14.8	14.8	14.8	83	10.6	0	1	248	0.00	30.086 
02:15	14.9	14.9	14.9	83	10.7	0	0	---	0.00	30.083 
02:20	15.2	15.2	15.2	84	11.3	0	1	248	0.00	30.083 
02:25	15.4	15.4	15.4	84	11.4	0	1	248	0.00	30.083 
02:30	15.7	15.7	15.7	84	11.7	0	1	248	0.00	30.080 
02:35	16.1	16.1	16.1	84	12.1	0	1	248	0.00	30.080 
02:40	16.2	16.2	16.2	84	12.2	0	1	248	0.00	30.080 
02:45	16.5	16.5	16.5	84	12.5	0	1	248	0.00	30.081 
02:50	16.5	16.5	16.5	84	12.5	0	1	248	0.00	30.081 
02:55	16.7	16.7	16.7	84	12.7	0	2	248	0.00	30.081 
03:00	17.0	17.0	17.0	84	13.0	0	2	248	0.00	30.073 
03:05	17.2	17.2	17.2	84	13.2	0	1	248	0.00	30.073 
03:10	17.2	17.2	17.2	83	12.9	0	1	248	0.00	30.073 
03:15	17.2	17.2	17.2	83	12.9	0	2	248	0.00	30.071 
03:20	17.3	17.3	17.3	83	13.0	0	2	248	0.00	30.071 
03:25	17.5	17.5	17.5	83	13.2	0	4	248	0.00	30.071 
03:30	17.5	17.5	17.5	83	13.2	0	2	248	0.00	30.063 
03:35	17.5	17.5	17.5	83	13.2	0	1	248	0.00	30.063 
03:40	17.7	17.7	17.7	83	13.4	0	1	248	0.00	30.063 
03:45	17.7	17.7	17.7	84	13.7	0	2	248	0.00	30.062 
03:50	17.7	17.7	17.7	84	13.7	0	1	248	0.00	30.062 
03:55	17.8	17.8	17.8	84	13.8	0	1	248	0.00	30.062 
04:00	17.8	17.8	17.8	84	13.8	0	1	248	0.00	30.058 
04:05	18.0	18.0	18.0	84	14.0	0	2	248	0.00	30.058 
04:10	18.0	18.0	18.0	84	14.0	0	1	248	0.00	30.058 
04:15	18.1	18.1	18.1	84	14.1	0	1	248	0.00	30.057 
04:20	18.3	18.3	18.3	84	14.3	0	2	248	0.00	30.057 
04:25	18.3	18.3	18.3	84	14.3	0	2	248	0.00	30.057 
04:30	18.3	18.3	18.3	84	14.3	0	2	248	0.00	30.056 
04:35	18.4	18.4	18.4	84	14.4	0	2	248	0.00	30.056 
04:40	18.4	18.4	18.4	84	14.4	0	0	---	0.00	30.056 
04:45	18.4	18.4	18.4	84	14.4	0	0	---	0.00	30.051 
04:50	18.4	18.4	18.4	85	14.7	0	1	248	0.00	30.051 
04:55	18.4	18.4	18.4	85	14.7	0	1	248	0.00	30.051 
05:00	18.3	18.3	18.3	85	14.6	0	1	248	0.00	30.049 
05:05	18.1	18.1	18.1	85	14.4	0	1	248	0.00	30.049 
05:10	18.0	18.0	18.0	85	14.3	0	1	248	0.00	30.049 
05:15	18.0	18.0	18.0	85	14.3	0	2	248	0.00	30.036 
05:20	17.8	17.8	17.8	85	14.1	0	1	248	0.00	30.036 
05:25	17.8	17.8	17.8	85	14.1	0	1	248	0.00	30.036 
05:30	17.8	17.8	17.8	85	14.1	0	1	248	0.00	30.032 
05:35	17.7	17.7	17.7	85	14.0	0	2	158	0.00	30.032 
05:40	17.7	17.7	17.7	85	14.0	0	1	158	0.00	30.032 
05:45	17.5	17.5	17.5	85	13.8	0	1	158	0.00	30.030 
05:50	17.5	17.5	17.5	86	14.0	0	2	158	0.00	30.030 
05:55	17.7	17.7	17.7	86	14.2	0	1	158	0.00	30.030 
06:00	17.7	17.7	17.7	86	14.2	0	2	158	0.00	30.026 
06:05	17.7	17.7	17.7	86	14.2	0	1	158	0.00	30.026 
06:10	17.7	17.7	17.7	86	14.2	0	1	158	0.00	30.026 
06:15	17.7	17.7	17.7	86	14.2	0	1	158	0.00	30.018 
06:20	17.7	17.7	17.7	86	14.2	0	2	158	0.00	30.018 
06:25	17.7	17.7	17.7	86	14.2	0	1	158	0.00	30.018 
06:30	17.8	17.8	17.8	86	14.3	0	1	158	0.00	30.011 
06:35	17.8	17.8	17.8	87	14.6	0	1	158	0.00	30.011 
06:40	17.8	17.8	17.8	87	14.6	0	1	158	0.00	30.011 
06:45	18.0	18.0	18.0	87	14.8	0	2	158	0.00	30.008 
06:50	18.0	18.0	18.0	87	14.8	0	1	158	0.00	30.008 
06:55	18.1	18.1	18.1	87	14.9	0	0	---	0.00	30.008 
07:00	18.1	18.1	18.1	87	14.9	0	1	158	0.00	30.004 
07:05	18.1	18.1	18.1	87	14.9	0	1	158	0.00	30.004 
07:10	18.3	18.3	18.3	87	15.1	0	3	158	0.00	30.004 
07:15	18.3	18.3	18.3	87	15.1	0	2	158	0.00	30.003 
07:20	18.4	18.4	18.4	88	15.5	0	1	158	0.00	30.003 
07:25	18.4	18.4	18.4	88	15.5	0	1	158	0.00	30.003 
07:30	18.4	18.4	18.4	88	15.5	0	2	158	0.00	30.001 
07:35	18.6	18.6	18.6	88	15.6	0	1	158	0.00	30.001 
07:40	18.6	18.6	18.6	88	15.6	0	2	158	0.00	30.001 
07:45	18.6	18.6	18.6	88	15.6	0	1	158	0.00	29.995 
07:50	18.8	18.8	18.8	88	15.8	0	1	158	0.00	29.995 
07:55	18.8	18.8	18.8	88	15.8	0	1	158	0.00	29.995 
08:00	18.9	18.9	18.9	88	15.9	0	1	158	0.00	30.000 
08:05	18.9	18.9	18.9	88	15.9	0	1	158	0.00	30.000 
08:10	19.1	19.1	19.1	88	16.1	0	0	---	0.00	30.000 
08:15	19.1	19.1	19.1	88	16.1	0	0	---	0.00	30.000 
08:20	19.2	19.2	19.2	88	16.2	0	1	158	0.00	30.000 
08:25	19.4	19.4	19.4	88	16.4	0	1	158	0.00	30.000 
08:30	19.4	19.4	19.4	88	16.4	0	1	158	0.00	29.999 
08:35	19.4	19.4	19.4	88	16.4	0	1	158	0.00	29.999 
08:40	19.5	19.5	19.5	88	16.5	0	2	158	0.00	29.999 
08:45	19.7	19.7	19.7	88	16.7	0	2	158	0.00	30.000 
08:50	19.9	19.9	19.9	89	17.2	0	2	158	0.00	30.000 
08:55	20.0	20.0	20.0	89	17.3	1	2	158	0.00	30.000 
09:00	20.2	20.2	20.2	89	17.5	1	3	158	0.00	29.998 
09:05	20.3	20.3	20.3	89	17.6	0	2	158	0.00	29.998 
09:10	20.5	20.5	20.5	89	17.8	0	2	158	0.00	29.998 
09:15	20.5	20.5	20.5	89	17.8	1	2	158	0.00	30.000 
09:20	20.6	20.6	20.6	88	17.6	1	3	158	0.00	30.000 
09:25	20.6	20.6	20.6	88	17.6	0	3	158	0.00	30.000 
09:30	20.8	20.8	20.8	88	17.8	1	3	135	0.00	29.993 
09:35	20.8	20.8	20.8	88	17.8	1	3	135	0.00	29.993 
09:40	21.0	21.0	21.0	88	18.0	1	3	135	0.00	29.993 
09:45	21.0	21.0	21.0	88	18.0	1	3	135	0.00	29.987 
09:50	21.1	21.1	21.1	88	18.1	1	3	135	0.00	29.987 
09:55	21.3	21.3	21.3	88	18.3	1	3	135	0.00	29.987 
10:00	21.3	21.3	21.3	88	18.3	1	5	112	0.00	29.985 
10:05	21.4	21.4	21.4	88	18.4	2	6	90	0.00	29.985 
10:10	21.4	21.4	21.4	88	18.4	2	4	90	0.00	29.985 
10:15	21.6	21.6	21.6	88	18.6	2	5	90	0.00	29.971 
10:20	21.6	21.6	21.6	88	18.6	2	5	90	0.00	29.971 
10:25	21.8	21.8	21.8	88	18.8	3	6	90	0.00	29.971 
10:30	21.9	21.9	21.9	88	18.9	2	5	68	0.00	29.962 
10:35	21.9	21.9	21.9	88	18.9	2	4	90	0.00	29.962 
10:40	21.9	21.9	21.9	88	18.9	2	4	90	0.00	29.962 
10:45	22.1	22.1	22.1	88	19.1	2	6	68	0.00	29.963 
10:50	22.2	22.2	22.2	88	19.2	2	4	68	0.00	29.963 
10:55	22.5	22.5	22.5	88	19.5	2	5	90	0.00	29.963 
11:00	22.7	22.7	22.7	87	19.4	3	6	90	0.00	29.952 
11:05	22.7	22.7	22.7	87	19.4	3	6	90	0.00	29.952 
11:10	22.7	22.7	22.7	87	19.4	3	5	90	0.00	29.952 
11:15	22.9	22.9	22.9	87	19.6	3	7	90	0.00	29.954 
11:20	22.9	22.9	22.9	86	19.4	3	7	90	0.00	29.954 
11:25	22.9	22.9	22.9	86	19.4	3	9	90	0.00	29.954 
11:30	23.0	23.0	23.0	87	19.7	2	5	90	0.00	29.953 
11:35	23.2	23.2	23.2	86	19.6	3	7	112	0.00	29.953 
11:40	23.2	23.2	23.2	86	19.6	3	6	90	0.00	29.953 
11:45	23.2	23.2	23.2	86	19.6	3	6	90	0.00	29.951 
11:50	23.3	23.3	23.3	86	19.7	2	6	90	0.00	29.951 
11:55	23.5	23.5	23.5	86	19.9	2	4	90	0.00	29.951 
12:00	23.5	23.5	23.5	86	19.9	3	6	112	0.00	29.944 
12:05	23.3	18.0	23.3	86	19.7	4	9	90	0.00	29.944 
12:10	23.2	23.2	23.2	86	19.6	3	6	90	0.00	29.944 
12:15	23.2	23.2	23.2	86	19.6	3	6	90	0.00	29.935 
12:20	23.2	23.2	23.2	86	19.6	3	9	90	0.00	29.935 
12:25	23.2	23.2	23.2	86	19.6	3	6	90	0.00	29.935 
12:30	23.2	23.2	23.2	86	19.6	2	6	90	0.00	29.924 
12:35	23.2	23.2	23.2	86	19.6	2	6	90	0.00	29.924 
12:40	23.3	23.3	23.3	86	19.7	2	4	90	0.00	29.924 
12:45	23.2	23.2	23.2	86	19.6	3	5	90	0.00	29.920 
12:50	23.0	23.0	23.0	86	19.4	3	5	90	0.00	29.920 
12:55	23.2	23.2	23.2	86	19.6	2	5	90	0.00	29.920 
13:00	23.2	23.2	23.2	86	19.6	3	6	90	0.00	29.908 
13:05	23.2	23.2	23.2	86	19.6	2	5	90	0.00	29.908 
13:10	23.3	23.3	23.3	86	19.7	1	4	68	0.00	29.908 
13:15	23.3	23.3	23.3	86	19.7	2	6	90	0.00	29.907 
13:20	23.5	23.5	23.5	85	19.7	2	5	90	0.00	29.907 
13:25	23.5	23.5	23.5	85	19.7	2	7	90	0.00	29.907 
13:30	23.5	23.5	23.5	86	19.9	1	4	90	0.00	29.895 
13:35	23.5	23.5	23.5	85	19.7	2	5	90	0.00	29.895 
13:40	23.5	23.5	23.5	85	19.7	2	5	90	0.00	29.895 
13:45	23.3	18.0	23.3	85	19.5	4	8	90	0.00	29.892 
13:50	23.3	23.3	23.3	85	19.5	2	6	90	0.00	29.892 
13:55	23.3	23.3	23.3	85	19.5	2	5	90	0.00	29.892 
14:00	23.3	23.3	23.3	85	19.5	3	5	90	0.00	29.889 
14:05	23.3	23.3	23.3	86	19.7	2	5	90	0.00	29.889 
14:10	23.3	23.3	23.3	85	19.5	2	4	90	0.00	29.889 
14:15	23.3	23.3	23.3	86	19.7	2	5	90	0.00	29.885 
14:20	23.3	23.3	23.3	86	19.7	2	4	90	0.00	29.885 
14:25	23.3	23.3	23.3	86	19.7	2	4	90	0.00	29.885 
14:30	23.5	23.5	23.5	86	19.9	2	5	90	0.00	29.880 
14:35	23.5	23.5	23.5	86	19.9	2	4	90	0.00	29.880 
14:40	23.5	23.5	23.5	86	19.9	2	4	90	0.00	29.880 
14:45	23.6	23.6	23.6	86	20.0	1	4	90	0.00	29.874 
14:50	23.6	23.6	23.6	86	20.0	1	3	90	0.00	29.874 
14:55	23.8	23.8	23.8	86	20.2	2	4	90	0.00	29.874 
15:00	23.8	23.8	23.8	86	20.2	1	3	90	0.00	29.875 
15:05	23.9	23.9	23.9	86	20.3	2	4	90	0.00	29.875 
15:10	23.9	23.9	23.9	86	20.3	1	3	90	0.00	29.875 
15:15	24.1	24.1	24.1	86	20.5	1	3	90	0.00	29.875 
15:20	24.2	24.2	24.2	86	20.6	1	4	90	0.00	29.875 
15:25	24.2	24.2	24.2	86	20.6	2	3	90	0.00	29.875 
15:30	24.2	24.2	24.2	86	20.6	1	3	90	0.00	29.871 
15:35	24.4	24.4	24.4	86	20.8	1	3	90	0.00	29.871 
15:40	24.4	24.4	24.4	86	20.8	2	4	90	0.00	29.871 
15:45	24.4	24.4	24.4	86	20.8	1	4	90	0.00	29.872 
15:50	24.2	24.2	24.2	86	20.6	1	3	90	0.00	29.872 
15:55	24.2	24.2	24.2	86	20.6	2	4	90	0.00	29.872 
16:00	24.1	24.1	24.1	86	20.5	2	5	90	0.00	29.869 
16:05	24.1	24.1	24.1	86	20.5	2	4	90	0.00	29.869 
16:10	24.2	24.2	24.2	87	20.9	1	4	90	0.00	29.869 
16:15	24.2	24.2	24.2	86	20.6	1	6	90	0.00	29.877 
16:20	24.1	24.1	24.1	87	20.8	2	5	90	0.00	29.877 
16:25	24.2	24.2	24.2	87	20.9	1	3	90	0.00	29.877 
16:30	24.4	24.4	24.4	87	21.1	0	2	90	0.00	29.876 
16:35	24.4	24.4	24.4	87	21.1	1	3	90	0.00	29.876 
16:40	24.4	24.4	24.4	87	21.1	1	4	90	0.00	29.876 
16:45	24.4	24.4	24.4	87	21.1	1	3	90	0.00	29.880 
16:50	24.4	24.4	24.4	87	21.1	1	4	90	0.00	29.880 
16:55	24.4	24.4	24.4	87	21.1	1	2	90	0.00	29.880 
17:00	24.4	24.4	24.4	86	20.8	1	3	90	0.00	29.875 
17:05	24.4	24.4	24.4	87	21.1	0	1	90	0.00	29.875 
17:10	24.5	24.5	24.5	86	20.9	1	3	90	0.00	29.875 
17:15	24.4	24.4	24.4	86	20.8	1	3	90	0.00	29.879 
17:20	24.4	24.4	24.4	86	20.8	0	2	90	0.00	29.879 
17:25	24.4	24.4	24.4	86	20.8	0	3	90	0.00	29.879 
17:30	24.4	24.4	24.4	86	20.8	0	1	90	0.00	29.879 
17:35	24.4	24.4	24.4	86	20.8	1	3	90	0.00	29.879 
17:40	24.2	24.2	24.2	86	20.6	1	3	90	0.00	29.879 
17:45	24.2	24.2	24.2	86	20.6	0	1	90	0.00	29.878 
17:50	24.2	24.2	24.2	86	20.6	0	2	90	0.00	29.878 
17:55	24.2	24.2	24.2	86	20.6	1	3	90	0.00	29.878 
18:00	24.1	24.1	24.1	86	20.5	1	3	90	0.00	29.873 
18:05	24.1	24.1	24.1	86	20.5	1	4	90	0.00	29.873 
18:10	23.9	23.9	23.9	86	20.3	0	2	90	0.00	29.873 
18:15	23.9	23.9	23.9	86	20.3	1	3	90	0.00	29.870 
18:20	23.9	23.9	23.9	86	20.3	1	5	90	0.00	29.870 
18:25	23.8	23.8	23.8	87	20.5	0	2	90	0.00	29.870 
18:30	23.8	23.8	23.8	87	20.5	0	2	90	0.00	29.868 
18:35	23.8	23.8	23.8	87	20.5	0	2	90	0.00	29.868 
18:40	23.6	23.6	23.6	87	20.3	0	3	90	0.00	29.868 
18:45	23.6	23.6	23.6	87	20.3	0	2	90	0.00	29.872 
18:50	23.6	23.6	23.6	87	20.3	0	2	90	0.00	29.872 
18:55	23.6	23.6	23.6	87	20.3	0	1	90	0.00	29.872 
19:00	23.6	23.6	23.6	87	20.3	0	1	90	0.00	29.885 
19:05	23.5	23.5	23.5	87	20.2	0	1	90	0.00	29.885 
19:10	23.5	23.5	23.5	87	20.2	0	1	90	0.00	29.885 
19:15	23.5	23.5	23.5	87	20.2	0	1	90	0.00	29.891 
19:20	23.5	23.5	23.5	87	20.2	0	0	---	0.00	29.891 
19:25	23.5	23.5	23.5	87	20.2	0	1	90	0.00	29.891 
19:30	23.5	23.5	23.5	87	20.2	0	0	---	0.00	29.900 
19:35	23.5	23.5	23.5	87	20.2	0	1	90	0.00	29.900 
19:40	23.5	23.5	23.5	87	20.2	0	0	---	0.00	29.900 
19:45	23.5	23.5	23.5	87	20.2	0	0	---	0.00	29.908 
19:50	23.5	23.5	23.5	87	20.2	0	1	90	0.00	29.908 
19:55	23.5	23.5	23.5	87	20.2	0	1	90	0.00	29.908 
20:00	23.5	23.5	23.5	87	20.2	0	0	---	0.00	29.915 
20:05	23.5	23.5	23.5	88	20.5	0	0	---	0.00	29.915 
20:10	23.5	23.5	23.5	88	20.5	0	0	---	0.00	29.915 
20:15	23.5	23.5	23.5	88	20.5	0	2	90	0.00	29.921 
20:20	23.5	23.5	23.5	88	20.5	0	0	---	0.00	29.921 
20:25	23.6	23.6	23.6	88	20.6	0	0	---	0.00	29.921 
20:30	23.5	23.5	23.5	88	20.5	0	1	90	0.00	29.931 
20:35	23.5	23.5	23.5	88	20.5	0	1	90	0.00	29.931 
20:40	23.5	23.5	23.5	88	20.5	0	0	---	0.00	29.931 
20:45	23.5	23.5	23.5	88	20.5	0	0	---	0.00	29.930 
20:50	23.5	23.5	23.5	88	20.5	0	0	---	0.00	29.930 
20:55	23.5	23.5	23.5	88	20.5	0	0	---	0.00	29.930 
21:00	23.5	23.5	23.5	88	20.5	0	0	---	0.00	29.931 
21:05	23.5	23.5	23.5	88	20.5	0	2	90	0.00	29.931 
21:10	23.5	23.5	23.5	88	20.5	0	1	90	0.00	29.931 
21:15	23.5	23.5	23.5	88	20.5	0	1	90	0.00	29.933 
21:20	23.5	23.5	23.5	88	20.5	0	0	---	0.00	29.933 
21:25	23.5	23.5	23.5	88	20.5	0	1	90	0.00	29.933 
21:30	23.5	23.5	23.5	88	20.5	0	0	---	0.00	29.938 
21:35	23.5	23.5	23.5	88	20.5	0	2	90	0.00	29.938 
21:40	23.5	23.5	23.5	88	20.5	0	0	---	0.00	29.938 
21:45	23.3	23.3	23.3	88	20.3	0	0	---	0.00	29.942 
21:50	23.3	23.3	23.3	88	20.3	0	1	90	0.00	29.942 
21:55	23.3	23.3	23.3	88	20.3	0	1	90	0.00	29.942 
22:00	23.3	23.3	23.3	88	20.3	0	0	---	0.00	29.942 
22:05	23.3	23.3	23.3	88	20.3	0	1	90	0.00	29.942 
22:10	23.3	23.3	23.3	88	20.3	0	0	---	0.00	29.942 
22:15	23.2	23.2	23.2	88	20.2	0	0	---	0.00	29.925 
22:20	23.2	23.2	23.2	88	20.2	0	0	---	0.00	29.925 
22:25	23.0	23.0	23.0	88	20.0	0	0	---	0.00	29.925 
22:30	22.9	22.9	22.9	88	19.9	0	0	---	0.00	29.923 
22:35	22.9	22.9	22.9	88	19.9	0	0	---	0.00	29.923 
22:40	22.7	22.7	22.7	88	19.7	0	0	---	0.00	29.923 
22:45	22.7	22.7	22.7	88	19.7	0	2	90	0.00	29.928 
22:50	22.9	22.9	22.9	88	19.9	0	1	90	0.00	29.928 
22:55	22.9	22.9	22.9	88	19.9	0	0	---	0.00	29.928 
23:00	22.9	22.9	22.9	88	19.9	0	0	---	0.00	29.931 
23:05	22.9	22.9	22.9	88	19.9	0	1	90	0.00	29.931 
23:10	22.7	22.7	22.7	88	19.7	0	0	---	0.00	29.931 
23:15	22.7	22.7	22.7	88	19.7	0	0	---	0.00	29.934 
23:20	22.5	22.5	22.5	88	19.5	0	0	---	0.00	29.934 
23:25	22.5	22.5	22.5	88	19.5	0	0	---	0.00	29.934 
23:30	22.5	22.5	22.5	88	19.5	0	0	---	0.00	29.951 
23:35	22.5	22.5	22.5	88	19.5	0	0	---	0.00	29.951 
23:40	22.5	22.5	22.5	88	19.5	0	0	---	0.00	29.951 
23:45	22.5	22.5	22.5	88	19.5	0	0	---	0.00	29.945 
23:50	22.5	22.5	22.5	88	19.5	0	0	---	0.00	29.945 
23:55	22.4	22.4	22.4	88	19.4	0	0	---	0.00	29.945 

CoCoRaHS
IN-AL-39
A2 Web Hosting
Creative Commons License
GoDaddy
search engine by freefind advanced

loaded 2018-11-13 17:38:37 • last modified 2010-11-18 10:43:29
Privacy PolicyDisclaimer
• wx.awcolley.com is powered by PmWiki v.2002016 •
• all content (unless otherwise noted) © 2018 A W Colley